Time;durP1;ratioP1;P1;durP2;ratioP2;P2;SDS_P1;SDS_P2;PMS_P1;PMS_P2;Temp;Humidity;BMP_temperature;BMP_pressure;BME280_temperature;BME280_humidity;BME280_pressure;Samples;Min_cycle;Max_cycle;Signal;HPM_P1;HPM_P2
2022/03/03 00:00:08;;;;;;;5.47;3.75;;;3.40;79.80;;;;;;5043571;28;20324;-69
2022/03/03 00:02:36;;;;;;;8.05;5.60;;;3.40;80.70;;;;;;5044060;28;20685;-69
2022/03/03 00:05:03;;;;;;;4.25;3.65;;;3.40;80.30;;;;;;5036089;28;20286;-69
2022/03/03 00:07:30;;;;;;;6.07;3.83;;;3.40;80.40;;;;;;5041691;28;20222;-69
2022/03/03 00:09:57;;;;;;;4.43;4.00;;;3.30;80.90;;;;;;5042648;28;20734;-69
2022/03/03 00:12:24;;;;;;;5.13;4.03;;;3.30;82.20;;;;;;5043227;28;20202;-69
2022/03/03 00:14:50;;;;;;;5.63;4.45;;;3.30;82.50;;;;;;5041773;28;20641;-69
2022/03/03 00:17:17;;;;;;;4.70;4.28;;;3.30;82.30;;;;;;5042521;28;20210;-69
2022/03/03 00:19:45;;;;;;;5.25;4.25;;;3.30;82.40;;;;;;5042838;28;20225;-68
2022/03/03 00:22:12;;;;;;;3.47;3.08;;;3.30;82.50;;;;;;5043092;28;20840;-69
2022/03/03 00:24:39;;;;;;;4.95;3.45;;;3.30;82.70;;;;;;5041978;28;20206;-69
2022/03/03 00:27:06;;;;;;;4.10;3.63;;;3.30;83.80;;;;;;5043144;28;20337;-69
2022/03/03 00:29:33;;;;;;;5.05;4.53;;;3.20;83.60;;;;;;5041839;28;20280;-68
2022/03/03 00:32:00;;;;;;;5.18;3.70;;;3.30;83.70;;;;;;5041617;28;20199;-69
2022/03/03 00:34:27;;;;;;;4.95;4.00;;;3.20;83.60;;;;;;5025342;28;20218;-69
2022/03/03 00:36:55;;;;;;;5.65;4.43;;;3.20;84.40;;;;;;5041757;28;20221;-69
2022/03/03 00:39:21;;;;;;;4.43;3.67;;;3.10;84.60;;;;;;5042676;28;20229;-69
2022/03/03 00:41:48;;;;;;;3.85;3.55;;;3.00;84.70;;;;;;5040668;28;20312;-69
2022/03/03 00:44:14;;;;;;;6.47;4.40;;;3.00;84.90;;;;;;5041821;28;20205;-68
2022/03/03 00:46:41;;;;;;;5.05;4.55;;;3.00;85.60;;;;;;5042284;28;20246;-69
2022/03/03 00:49:08;;;;;;;4.43;3.97;;;2.90;85.80;;;;;;5042196;28;20636;-68
2022/03/03 00:51:35;;;;;;;5.45;4.95;;;3.00;85.60;;;;;;5041659;28;20254;-67
2022/03/03 00:54:03;;;;;;;4.65;3.55;;;2.90;85.80;;;;;;5041907;28;21019;-68
2022/03/03 00:56:30;;;;;;;4.82;3.72;;;2.90;85.50;;;;;;5038089;28;20258;-68
2022/03/03 00:58:56;;;;;;;7.05;4.32;;;2.90;86.00;;;;;;5041954;28;20356;-68
2022/03/03 01:01:23;;;;;;;9.27;4.15;;;2.90;86.10;;;;;;5042157;28;20279;-68
2022/03/03 01:03:50;;;;;;;7.25;5.20;;;2.90;85.90;;;;;;5045742;28;20205;-69
2022/03/03 01:06:17;;;;;;;5.70;4.05;;;2.80;85.90;;;;;;5046372;28;20251;-69
2022/03/03 01:08:43;;;;;;;8.32;4.00;;;2.80;86.40;;;;;;5046240;28;20240;-69
2022/03/03 01:11:11;;;;;;;5.05;4.20;;;2.80;86.80;;;;;;5045329;28;20339;-69
2022/03/03 01:13:38;;;;;;;4.00;3.60;;;2.80;87.00;;;;;;5044592;28;20201;-68
2022/03/03 01:16:05;;;;;;;6.20;4.32;;;2.80;87.70;;;;;;5045628;28;20222;-69
2022/03/03 01:18:32;;;;;;;5.13;4.30;;;2.70;87.60;;;;;;5047394;28;20217;-68
2022/03/03 01:20:59;;;;;;;6.57;5.10;;;2.70;87.60;;;;;;5040017;28;20201;-70
2022/03/03 01:23:26;;;;;;;5.00;4.18;;;2.70;87.70;;;;;;5042087;28;20202;-69
2022/03/03 01:25:52;;;;;;;4.13;3.78;;;2.70;88.00;;;;;;5056798;28;20335;-68
2022/03/03 01:28:20;;;;;;;7.03;4.65;;;2.60;88.70;;;;;;5048563;28;20197;-69
2022/03/03 01:30:48;;;;;;;6.85;4.70;;;2.60;89.00;;;;;;5044824;28;20241;-68
2022/03/03 01:33:15;;;;;;;5.05;4.55;;;2.70;88.60;;;;;;5045828;28;20206;-67
2022/03/03 01:35:42;;;;;;;4.47;3.88;;;2.60;88.80;;;;;;5044108;28;20239;-68
2022/03/03 01:38:09;;;;;;;3.83;3.47;;;2.60;89.00;;;;;;5045891;28;20210;-68
2022/03/03 01:40:36;;;;;;;10.55;4.25;;;2.60;89.20;;;;;;5046348;28;20212;-68
2022/03/03 01:43:03;;;;;;;5.05;4.55;;;2.60;89.30;;;;;;5045162;28;20212;-69
2022/03/03 01:45:32;;;;;;;4.80;4.28;;;2.60;89.90;;;;;;5045376;28;20623;-68
2022/03/03 01:47:58;;;;;;;4.45;3.97;;;2.50;90.00;;;;;;5043241;28;20279;-68
2022/03/03 01:50:25;;;;;;;4.35;3.63;;;2.50;90.10;;;;;;5045439;28;20306;-68
2022/03/03 01:52:52;;;;;;;8.45;4.30;;;2.40;90.30;;;;;;5044802;28;20221;-68
2022/03/03 01:55:19;;;;;;;10.02;3.72;;;2.40;90.60;;;;;;5045532;28;20327;-68
2022/03/03 01:57:48;;;;;;;5.90;3.65;;;2.30;90.80;;;;;;5044577;28;20205;-68
2022/03/03 02:00:16;;;;;;;4.57;4.15;;;2.30;91.30;;;;;;5046169;28;20225;-69
2022/03/03 02:02:44;;;;;;;6.80;4.50;;;2.30;91.20;;;;;;5044835;28;20208;-68
2022/03/03 02:05:11;;;;;;;5.68;4.43;;;2.30;91.20;;;;;;5046059;28;20252;-68
2022/03/03 02:07:38;;;;;;;6.00;4.82;;;2.40;91.40;;;;;;5047057;28;20202;-68
2022/03/03 02:10:06;;;;;;;4.82;3.35;;;2.40;91.20;;;;;;5046801;28;20305;-68
2022/03/03 02:12:33;;;;;;;4.70;4.00;;;2.40;91.30;;;;;;5045529;28;20236;-69
2022/03/03 02:15:00;;;;;;;11.10;6.03;;;2.30;91.50;;;;;;5044788;28;20225;-68
2022/03/03 02:17:26;;;;;;;3.85;3.55;;;2.20;92.00;;;;;;5045642;28;20216;-68
2022/03/03 02:19:54;;;;;;;5.03;4.22;;;2.20;92.50;;;;;;5077005;22;20417;-67
2022/03/03 02:22:22;;;;;;;5.30;4.80;;;2.30;92.00;;;;;;5068273;28;20674;-66
2022/03/03 02:24:49;;;;;;;5.38;4.57;;;2.30;91.90;;;;;;5068758;28;20762;-67
2022/03/03 02:27:16;;;;;;;5.03;4.55;;;2.20;92.20;;;;;;5069128;28;20812;-68
2022/03/03 02:29:43;;;;;;;6.65;5.00;;;2.10;92.50;;;;;;5068574;28;20297;-68
2022/03/03 02:32:10;;;;;;;4.88;4.45;;;2.10;92.80;;;;;;5068959;28;20736;-68
2022/03/03 02:34:37;;;;;;;5.57;3.97;;;2.10;93.20;;;;;;5068623;28;20605;-68
2022/03/03 02:37:04;;;;;;;7.50;3.88;;;2.00;93.60;;;;;;5069153;28;20223;-68
2022/03/03 02:39:32;;;;;;;7.32;4.20;;;2.00;94.20;;;;;;5068636;28;20301;-67
2022/03/03 02:41:58;;;;;;;4.93;4.43;;;1.90;94.90;;;;;;5068616;28;20204;-68
2022/03/03 02:44:25;;;;;;;4.47;4.07;;;1.90;95.30;;;;;;5067913;28;20227;-68
2022/03/03 02:46:52;;;;;;;3.85;3.53;;;1.90;95.90;;;;;;5068916;28;20457;-67
2022/03/03 02:49:18;;;;;;;5.72;4.75;;;2.00;96.40;;;;;;5068381;28;20224;-68
2022/03/03 02:51:45;;;;;;;5.18;4.88;;;1.90;96.60;;;;;;5068305;28;20215;-67
2022/03/03 02:54:12;;;;;;;6.50;5.38;;;1.90;97.00;;;;;;5068571;28;20200;-68
2022/03/03 02:59:20;;;;;;;6.20;5.03;;;1.80;97.70;;;;;;5068252;28;20325;-66
2022/03/03 03:01:47;;;;;;;7.03;5.15;;;1.80;97.90;;;;;;5068648;28;20243;-68
2022/03/03 03:04:14;;;;;;;6.10;4.63;;;1.70;98.70;;;;;;5073833;28;20678;-67
2022/03/03 03:06:41;;;;;;;5.80;4.47;;;1.70;99.40;;;;;;5058656;28;20206;-69
2022/03/03 03:09:07;;;;;;;8.55;5.53;;;1.70;99.90;;;;;;5065548;28;20222;-67
2022/03/03 03:11:34;;;;;;;5.38;4.88;;;1.70;99.90;;;;;;5078662;28;20252;-67
2022/03/03 03:14:02;;;;;;;7.57;4.88;;;1.60;99.90;;;;;;5084715;28;20200;-69
2022/03/03 03:16:28;;;;;;;5.15;4.50;;;1.60;99.90;;;;;;5068208;28;20488;-68
2022/03/03 03:18:55;;;;;;;8.70;4.60;;;1.50;99.90;;;;;;5067619;28;20227;-68
2022/03/03 03:21:22;;;;;;;7.18;3.90;;;1.50;99.90;;;;;;5068510;28;20208;-69
2022/03/03 03:23:48;;;;;;;9.40;3.90;;;1.40;99.90;;;;;;5067177;28;20208;-69
2022/03/03 03:26:15;;;;;;;5.88;4.63;;;1.40;99.90;;;;;;5068037;28;20273;-69
2022/03/03 03:28:42;;;;;;;6.90;4.32;;;1.40;99.90;;;;;;5068048;28;20239;-69
2022/03/03 03:31:10;;;;;;;6.63;5.60;;;1.30;99.90;;;;;;5067326;28;20211;-69
2022/03/03 03:33:36;;;;;;;6.78;5.40;;;1.20;99.90;;;;;;5066852;28;20253;-68
2022/03/03 03:36:04;;;;;;;4.68;4.03;;;1.20;99.90;;;;;;5067557;28;20281;-68
2022/03/03 03:38:30;;;;;;;8.82;5.65;;;1.20;99.90;;;;;;5067320;28;20203;-69
2022/03/03 03:40:57;;;;;;;8.00;4.75;;;1.20;99.90;;;;;;5067794;28;20237;-69
2022/03/03 03:43:24;;;;;;;6.40;4.13;;;1.10;99.90;;;;;;5067219;28;20628;-69
2022/03/03 03:45:50;;;;;;;8.48;4.63;;;1.00;99.90;;;;;;5067503;28;20616;-69
2022/03/03 03:48:18;;;;;;;6.15;4.90;;;1.00;99.90;;;;;;5067399;28;20604;-68
2022/03/03 03:50:45;;;;;;;3.97;3.58;;;1.00;99.90;;;;;;5067090;28;20667;-69
2022/03/03 03:53:12;;;;;;;5.88;3.30;;;1.00;99.90;;;;;;5067012;28;20195;-69
2022/03/03 03:55:38;;;;;;;5.63;3.90;;;1.00;99.90;;;;;;5066971;28;20222;-68
2022/03/03 03:58:05;;;;;;;5.25;3.85;;;1.10;99.90;;;;;;5066811;28;20199;-69
2022/03/03 04:00:32;;;;;;;3.80;3.47;;;1.10;99.90;;;;;;5066700;28;20872;-67
2022/03/03 04:02:58;;;;;;;6.60;4.97;;;1.00;99.90;;;;;;5066893;28;20259;-69
2022/03/03 04:05:27;;;;;;;5.30;4.80;;;1.00;99.90;;;;;;5066517;28;20757;-70
2022/03/03 04:07:53;;;;;;;8.35;4.75;;;0.90;99.90;;;;;;5067105;28;20698;-70
2022/03/03 04:10:21;;;;;;;5.90;4.72;;;0.90;99.90;;;;;;5067106;28;20250;-69
2022/03/03 04:12:48;;;;;;;3.92;3.63;;;0.90;99.90;;;;;;5066845;28;20202;-68
2022/03/03 04:15:14;;;;;;;4.28;3.67;;;1.00;99.90;;;;;;5067338;28;20249;-67
2022/03/03 04:17:42;;;;;;;4.57;4.10;;;0.90;99.90;;;;;;5066950;28;20250;-69
2022/03/03 04:20:09;;;;;;;5.50;2.95;;;0.90;99.90;;;;;;5066908;28;20855;-67
2022/03/03 04:22:38;;;;;;;6.15;4.25;;;0.80;99.90;;;;;;5066089;28;20215;-69
2022/03/03 04:25:06;;;;;;;6.45;4.40;;;0.80;99.90;;;;;;5066732;28;20547;-68
2022/03/03 04:27:32;;;;;;;5.13;4.15;;;0.70;99.90;;;;;;5066802;28;20253;-69
2022/03/03 04:29:59;;;;;;;6.88;5.53;;;0.80;99.90;;;;;;5066576;28;20217;-68
2022/03/03 04:32:26;;;;;;;5.03;4.20;;;0.70;99.90;;;;;;5066596;28;20628;-68
2022/03/03 04:34:52;;;;;;;7.70;4.85;;;0.70;99.90;;;;;;5066401;28;20661;-68
2022/03/03 04:37:19;;;;;;;4.20;3.72;;;0.70;99.90;;;;;;5066516;28;20273;-67
2022/03/03 04:39:47;;;;;;;6.53;4.78;;;0.60;99.90;;;;;;5067244;28;20275;-69
2022/03/03 04:42:14;;;;;;;8.20;4.53;;;0.60;99.90;;;;;;5066519;28;20198;-68
2022/03/03 04:44:41;;;;;;;7.57;4.57;;;0.60;99.90;;;;;;5066370;28;20202;-67
2022/03/03 04:47:07;;;;;;;4.93;4.32;;;0.50;99.90;;;;;;5066718;28;20209;-67
2022/03/03 04:49:34;;;;;;;5.20;4.75;;;0.50;99.90;;;;;;5067067;28;20279;-68
2022/03/03 04:52:01;;;;;;;5.13;3.90;;;0.60;99.90;;;;;;5065430;28;20297;-68
2022/03/03 04:54:27;;;;;;;4.57;3.20;;;0.60;99.90;;;;;;5067081;28;20202;-67
2022/03/03 04:56:56;;;;;;;5.18;4.03;;;0.60;99.90;;;;;;5065393;28;20214;-70
2022/03/03 04:59:24;;;;;;;8.93;4.65;;;0.70;99.90;;;;;;5066601;28;20249;-68
2022/03/03 05:01:51;;;;;;;9.73;4.18;;;0.70;99.90;;;;;;5065950;28;20284;-68
2022/03/03 05:04:18;;;;;;;4.93;4.47;;;0.80;99.90;;;;;;5066930;28;20309;-69
2022/03/03 05:06:44;;;;;;;5.50;4.78;;;0.80;99.90;;;;;;5066368;28;20635;-68
2022/03/03 05:09:11;;;;;;;8.43;5.30;;;0.70;99.90;;;;;;5066308;28;20274;-71
2022/03/03 05:11:38;;;;;;;5.05;4.55;;;0.70;99.90;;;;;;5067124;28;20224;-70
2022/03/03 05:14:07;;;;;;;11.15;3.85;;;0.70;99.90;;;;;;5065657;28;20325;-69
2022/03/03 05:16:33;;;;;;;4.32;3.90;;;0.70;99.90;;;;;;5066629;28;20227;-69
2022/03/03 05:19:00;;;;;;;4.32;4.03;;;0.70;99.90;;;;;;5065844;28;20234;-68
2022/03/03 05:21:27;;;;;;;4.97;4.47;;;0.70;99.90;;;;;;5066698;28;20734;-69
2022/03/03 05:23:54;;;;;;;6.13;5.07;;;0.70;99.90;;;;;;5065649;28;20202;-69
2022/03/03 05:26:20;;;;;;;5.20;4.43;;;0.70;99.90;;;;;;5066753;28;20260;-69
2022/03/03 05:28:47;;;;;;;7.22;5.18;;;0.60;99.90;;;;;;5066257;28;20217;-69
2022/03/03 05:31:15;;;;;;;5.30;4.80;;;0.60;99.90;;;;;;5066393;28;20954;-69
2022/03/03 05:33:43;;;;;;;5.80;5.20;;;0.60;99.90;;;;;;5065655;28;20204;-68
2022/03/03 05:36:11;;;;;;;5.65;4.72;;;0.50;99.90;;;;;;5066009;28;20649;-69
2022/03/03 05:38:38;;;;;;;6.68;4.40;;;0.60;99.90;;;;;;5065096;28;20298;-70
2022/03/03 05:41:06;;;;;;;6.30;4.22;;;0.50;99.90;;;;;;5064867;28;20750;-68
2022/03/03 05:43:33;;;;;;;6.72;4.07;;;0.50;99.90;;;;;;5065654;28;20389;-67
2022/03/03 05:46:00;;;;;;;6.65;3.60;;;0.50;99.90;;;;;;5066208;28;20259;-70
2022/03/03 05:48:28;;;;;;;6.07;4.32;;;0.60;99.90;;;;;;5067886;28;20634;-67
2022/03/03 05:50:56;;;;;;;4.63;3.97;;;0.60;99.90;;;;;;5069851;28;20479;-69
2022/03/03 05:53:23;;;;;;;4.95;4.47;;;0.70;99.90;;;;;;5069537;28;20214;-68
2022/03/03 05:55:52;;;;;;;4.45;3.88;;;0.70;99.90;;;;;;5069473;28;20255;-69
2022/03/03 05:58:21;;;;;;;4.20;3.80;;;0.70;99.90;;;;;;5069106;28;20201;-68
2022/03/03 06:00:49;;;;;;;7.95;4.35;;;0.70;99.90;;;;;;5069013;28;20256;-69
2022/03/03 06:03:18;;;;;;;8.85;4.80;;;0.80;99.90;;;;;;5068718;28;20737;-68
2022/03/03 06:05:50;;;;;;;6.45;3.60;;;0.80;99.90;;;;;;5069438;28;20621;-70
2022/03/03 06:08:18;;;;;;;6.28;4.65;;;0.70;99.90;;;;;;5069723;28;20208;-68
2022/03/03 06:10:50;;;;;;;3.53;3.22;;;0.70;99.90;;;;;;5069369;28;20718;-67
2022/03/03 06:13:25;;;;;;;4.95;4.45;;;0.60;99.90;;;;;;5063385;28;20203;-68
2022/03/03 06:15:53;;;;;;;4.00;3.60;;;0.60;99.90;;;;;;5069885;28;20201;-70
2022/03/03 06:18:24;;;;;;;5.40;4.32;;;0.70;99.90;;;;;;5069601;28;20729;-71
2022/03/03 06:20:52;;;;;;;4.22;3.90;;;0.70;99.90;;;;;;5068894;28;20198;-69
2022/03/03 06:23:19;;;;;;;4.47;4.18;;;0.70;99.90;;;;;;5068559;28;20192;-68
2022/03/03 06:25:48;;;;;;;3.95;3.55;;;0.60;99.90;;;;;;5068135;28;20200;-70
2022/03/03 06:28:15;;;;;;;5.28;4.85;;;0.70;99.90;;;;;;5068286;28;20484;-70
2022/03/03 06:30:42;;;;;;;6.88;4.90;;;0.70;99.90;;;;;;5067381;28;20630;-69
2022/03/03 06:33:09;;;;;;;5.18;3.83;;;0.70;99.90;;;;;;5067171;28;20209;-70
2022/03/03 06:35:37;;;;;;;6.75;3.90;;;0.60;99.90;;;;;;5069130;28;20198;-70
2022/03/03 06:38:07;;;;;;;8.85;4.82;;;0.60;99.90;;;;;;5068991;28;20233;-70
2022/03/03 06:40:34;;;;;;;8.15;5.38;;;0.60;99.90;;;;;;5069753;28;20244;-68
2022/03/03 06:43:01;;;;;;;7.38;5.45;;;0.50;99.90;;;;;;5064940;28;20551;-68
2022/03/03 06:45:29;;;;;;;4.22;3.92;;;0.50;99.90;;;;;;5080467;28;20197;-68
2022/03/03 06:47:56;;;;;;;5.90;4.40;;;0.50;99.90;;;;;;5073723;28;20565;-69
2022/03/03 06:50:23;;;;;;;4.97;4.53;;;0.50;99.90;;;;;;5052751;28;20279;-70
2022/03/03 06:52:51;;;;;;;4.82;4.43;;;0.50;99.90;;;;;;5069252;28;20213;-70
2022/03/03 06:55:21;;;;;;;4.57;3.97;;;0.50;99.90;;;;;;5076436;28;20686;-70
2022/03/03 06:57:50;;;;;;;4.70;3.55;;;0.40;99.90;;;;;;5079404;28;20787;-69
2022/03/03 07:00:19;;;;;;;4.63;4.22;;;0.50;99.90;;;;;;5073178;28;20308;-68
2022/03/03 07:02:47;;;;;;;7.30;4.28;;;0.50;99.90;;;;;;5070256;28;20297;-69
2022/03/03 07:05:14;;;;;;;5.88;5.22;;;0.50;99.90;;;;;;5065134;28;20312;-69
2022/03/03 07:07:42;;;;;;;5.07;4.18;;;0.50;99.90;;;;;;5068185;28;20210;-69
2022/03/03 07:10:09;;;;;;;3.42;3.13;;;0.50;99.90;;;;;;5069024;28;20217;-70
2022/03/03 07:12:38;;;;;;;8.98;5.47;;;0.60;99.90;;;;;;5069654;28;20205;-70
2022/03/03 07:15:05;;;;;;;6.10;3.88;;;0.70;99.90;;;;;;5068616;28;20230;-70
2022/03/03 07:17:44;;;;;;;6.43;3.60;;;0.70;99.90;;;;;;5066381;28;20635;-70
2022/03/03 07:20:14;;;;;;;4.35;3.60;;;0.80;99.90;;;;;;5064513;28;20723;-70
2022/03/03 07:22:56;;;;;;;5.20;4.70;;;0.80;99.90;;;;;;5063089;28;20202;-71
2022/03/03 07:25:27;;;;;;;4.28;3.83;;;0.80;99.90;;;;;;5067584;28;20456;-71
2022/03/03 07:27:57;;;;;;;5.57;4.03;;;0.90;99.90;;;;;;5066228;28;20197;-69
2022/03/03 07:30:24;;;;;;;4.82;3.78;;;1.00;99.90;;;;;;5068361;28;20231;-70
2022/03/03 07:32:56;;;;;;;7.22;4.63;;;1.10;99.90;;;;;;5063548;28;20616;-70
2022/03/03 07:35:25;;;;;;;4.60;3.97;;;1.20;99.90;;;;;;5065628;28;20618;-71
2022/03/03 07:37:56;;;;;;;4.75;4.05;;;1.30;99.90;;;;;;5060523;28;20221;-71
2022/03/03 07:40:27;;;;;;;5.03;4.53;;;1.50;99.90;;;;;;5063463;28;20855;-71
2022/03/03 07:42:55;;;;;;;7.45;4.30;;;1.70;99.90;;;;;;5061485;28;20203;-69
2022/03/03 07:45:22;;;;;;;3.95;3.42;;;1.80;99.90;;;;;;5066849;28;20213;-70
2022/03/03 07:47:49;;;;;;;7.82;5.50;;;1.90;99.90;;;;;;5063944;28;20208;-68
2022/03/03 07:50:16;;;;;;;3.45;3.25;;;2.00;99.90;;;;;;5067162;28;20231;-70
2022/03/03 07:52:45;;;;;;;4.78;4.15;;;2.00;99.90;;;;;;5065946;28;20209;-70
2022/03/03 07:55:12;;;;;;;5.97;4.80;;;2.20;99.90;;;;;;5067267;28;20369;-70
2022/03/03 07:57:41;;;;;;;9.05;5.20;;;2.30;99.90;;;;;;5065286;28;20293;-69
2022/03/03 08:00:13;;;;;;;5.97;4.32;;;2.50;99.90;;;;;;5066193;28;20218;-70
2022/03/03 08:02:42;;;;;;;9.25;5.55;;;2.60;99.90;;;;;;5049345;28;20205;-71
2022/03/03 08:05:09;;;;;;;7.55;6.78;;;2.80;99.90;;;;;;5063163;28;20228;-67
2022/03/03 08:07:41;;;;;;;4.50;4.03;;;3.00;99.90;;;;;;5059587;28;20236;-68
2022/03/03 08:10:10;;;;;;;5.25;4.35;;;3.30;99.90;;;;;;5059433;28;20248;-65
2022/03/03 08:12:37;;;;;;;5.28;4.72;;;3.50;99.90;;;;;;5065267;28;20675;-71
2022/03/03 08:15:06;;;;;;;7.93;4.50;;;3.70;99.90;;;;;;5060703;28;20352;-71
2022/03/03 08:17:35;;;;;;;10.15;5.25;;;3.90;99.90;;;;;;5065989;28;20224;-73
2022/03/03 08:20:04;;;;;;;5.47;4.93;;;4.00;99.90;;;;;;5089498;22;20284;-73
2022/03/03 08:22:32;;;;;;;7.38;4.68;;;4.20;99.90;;;;;;5045658;28;20684;-73
2022/03/03 08:24:59;;;;;;;5.38;4.35;;;4.30;99.90;;;;;;5043893;28;20201;-72
2022/03/03 08:27:27;;;;;;;4.15;3.72;;;4.40;99.90;;;;;;5046628;28;20255;-73
2022/03/03 08:29:55;;;;;;;6.50;5.57;;;4.50;99.90;;;;;;5047208;28;20223;-72
2022/03/03 08:32:23;;;;;;;6.05;4.85;;;4.50;99.90;;;;;;5041155;28;20202;-73
2022/03/03 08:35:04;;;;;;;6.45;5.25;;;4.50;99.90;;;;;;5046046;28;20223;-72
2022/03/03 08:37:35;;;;;;;5.03;4.35;;;4.70;99.90;;;;;;5042459;28;20699;-76
2022/03/03 08:40:05;;;;;;;7.10;5.20;;;4.80;99.90;;;;;;5047031;28;20222;-73
2022/03/03 08:42:37;;;;;;;7.68;5.75;;;5.00;99.90;;;;;;5046622;28;20206;-77
2022/03/03 08:45:06;;;;;;;6.60;4.88;;;5.20;99.90;;;;;;5044317;28;20237;-76
2022/03/03 08:47:34;;;;;;;6.45;5.55;;;5.40;99.90;;;;;;5047020;28;20202;-74
2022/03/03 08:50:08;;;;;;;5.38;3.85;;;5.70;99.90;;;;;;5047040;28;20229;-74
2022/03/03 08:52:35;;;;;;;6.00;5.38;;;6.00;99.90;;;;;;5037322;28;20647;-76
2022/03/03 08:55:02;;;;;;;5.20;4.78;;;6.30;99.90;;;;;;5050043;28;20289;-74
2022/03/03 08:57:28;;;;;;;6.40;5.45;;;6.60;99.90;;;;;;5052519;28;20247;-72
2022/03/03 08:59:55;;;;;;;8.98;4.60;;;6.60;99.90;;;;;;5035705;28;20684;-73
2022/03/03 09:02:22;;;;;;;7.57;6.40;;;6.80;99.90;;;;;;5046252;28;20926;-73
2022/03/03 09:04:48;;;;;;;4.72;4.32;;;7.00;99.90;;;;;;5043469;28;20583;-72
2022/03/03 09:07:16;;;;;;;6.35;5.00;;;7.10;99.90;;;;;;5030923;28;20195;-72
2022/03/03 09:09:43;;;;;;;6.78;4.93;;;7.30;99.90;;;;;;5039380;28;20226;-74
2022/03/03 09:12:13;;;;;;;7.55;6.07;;;7.40;99.90;;;;;;5040844;28;20294;-72
2022/03/03 09:14:40;;;;;;;10.05;6.05;;;7.60;99.90;;;;;;5046322;28;20197;-72
2022/03/03 09:17:07;;;;;;;5.05;4.63;;;7.80;99.90;;;;;;5042086;28;20901;-71
2022/03/03 09:19:33;;;;;;;6.43;4.93;;;8.00;99.90;;;;;;5045342;28;20832;-71
2022/03/03 09:22:00;;;;;;;7.70;5.28;;;8.10;99.90;;;;;;5044422;28;20268;-72
2022/03/03 09:24:28;;;;;;;6.72;4.90;;;8.30;99.90;;;;;;5043859;28;20590;-70
2022/03/03 09:26:56;;;;;;;6.93;4.88;;;8.40;99.90;;;;;;5051710;28;20754;-70
2022/03/03 09:29:22;;;;;;;7.20;5.63;;;8.60;99.90;;;;;;5037390;28;20213;-72
2022/03/03 09:31:50;;;;;;;6.28;5.53;;;8.70;99.90;;;;;;5033827;28;20449;-71
2022/03/03 09:34:17;;;;;;;9.73;5.50;;;8.70;99.90;;;;;;5041968;28;20201;-71
2022/03/03 09:36:43;;;;;;;6.95;5.30;;;8.90;99.90;;;;;;5050371;28;20213;-72
2022/03/03 09:39:10;;;;;;;7.40;5.23;;;9.10;99.80;;;;;;5050040;28;20217;-70
2022/03/03 09:41:38;;;;;;;7.32;6.47;;;9.20;98.60;;;;;;5050329;28;20506;-71
2022/03/03 09:44:05;;;;;;;6.20;5.03;;;9.20;98.60;;;;;;5048676;28;20198;-72
2022/03/03 09:46:35;;;;;;;6.70;5.37;;;9.40;98.80;;;;;;5049183;28;20209;-71
2022/03/03 09:49:03;;;;;;;6.50;5.10;;;9.50;98.70;;;;;;5047482;28;20448;-68
2022/03/03 09:51:29;;;;;;;6.10;5.50;;;9.80;98.90;;;;;;5047127;28;20518;-71
2022/03/03 09:53:56;;;;;;;6.30;4.87;;;10.00;97.10;;;;;;5048306;28;20506;-67
2022/03/03 09:56:23;;;;;;;6.80;5.50;;;10.20;97.30;;;;;;5055068;28;20448;-63
2022/03/03 09:58:51;;;;;;;6.43;5.73;;;10.30;97.60;;;;;;5041743;28;20894;-62
2022/03/03 10:01:18;;;;;;;5.83;5.23;;;10.60;96.70;;;;;;5050230;28;20457;-61
2022/03/03 10:03:47;;;;;;;5.70;5.17;;;10.70;96.80;;;;;;5049349;28;20884;-72
2022/03/03 10:06:14;;;;;;;8.00;6.00;;;10.80;96.40;;;;;;5043895;28;20557;-74
2022/03/03 10:08:41;;;;;;;10.80;5.77;;;11.10;95.60;;;;;;5047494;28;20471;-72
2022/03/03 10:11:09;;;;;;;6.97;6.13;;;11.10;94.40;;;;;;5049424;28;20472;-73
2022/03/03 10:13:47;;;;;;;6.20;5.60;;;10.90;94.10;;;;;;5048485;28;20451;-74
2022/03/03 10:16:23;;;;;;;6.67;5.90;;;10.80;94.10;;;;;;5045990;28;21223;-73
2022/03/03 10:18:59;;;;;;;7.07;5.80;;;10.80;93.70;;;;;;5029356;28;20481;-73
2022/03/03 10:21:28;;;;;;;6.50;5.20;;;10.90;93.60;;;;;;5029295;28;20487;-75
2022/03/03 10:23:55;;;;;;;7.03;5.63;;;10.80;93.00;;;;;;5048368;28;20457;-73
2022/03/03 10:26:33;;;;;;;12.93;6.60;;;10.90;93.20;;;;;;5049449;28;20548;-74
2022/03/03 10:29:00;;;;;;;11.50;6.30;;;11.00;93.20;;;;;;5043356;28;21138;-72
2022/03/03 10:31:28;;;;;;;7.27;6.10;;;11.10;92.90;;;;;;5046554;28;20469;-73
2022/03/03 10:33:55;;;;;;;8.73;6.60;;;11.10;92.80;;;;;;5045258;28;20488;-71
2022/03/03 10:36:23;;;;;;;6.60;5.90;;;11.10;92.60;;;;;;5048792;28;20444;-71
2022/03/03 10:38:54;;;;;;;7.93;6.50;;;11.30;92.00;;;;;;5047198;28;20573;-71
2022/03/03 10:41:43;;;;;;;6.07;5.40;;;11.10;92.10;;;;;;5044510;28;20473;-71
2022/03/03 10:44:12;;;;;;;7.83;6.50;;;11.40;91.90;;;;;;5042155;28;21100;-71
2022/03/03 10:46:41;;;;;;;5.57;5.07;;;11.40;91.80;;;;;;5048835;28;20452;-71
2022/03/03 10:49:19;;;;;;;9.73;5.83;;;11.40;91.90;;;;;;5045847;28;20510;-71
2022/03/03 10:51:45;;;;;;;9.20;6.10;;;11.60;91.90;;;;;;5043528;28;20452;-71
2022/03/03 10:54:12;;;;;;;6.63;5.40;;;11.60;91.70;;;;;;5041359;28;20449;-71
2022/03/03 10:56:43;;;;;;;7.13;6.43;;;11.80;92.10;;;;;;5049148;28;20506;-72
2022/03/03 10:59:17;;;;;;;7.87;7.07;;;11.90;92.00;;;;;;5043910;28;20512;-71
2022/03/03 11:01:45;;;;;;;6.80;5.87;;;12.10;91.10;;;;;;5041414;28;20444;-71
2022/03/03 11:04:17;;;;;;;7.10;6.30;;;12.10;90.90;;;;;;5044029;28;20494;-71
2022/03/03 11:06:44;;;;;;;8.93;6.33;;;12.20;90.80;;;;;;5043953;28;20474;-71
2022/03/03 11:09:11;;;;;;;8.20;6.30;;;12.50;90.30;;;;;;5045267;28;20489;-70
2022/03/03 11:11:38;;;;;;;9.00;6.47;;;12.70;90.00;;;;;;5027287;28;21007;-70
2022/03/03 11:14:05;;;;;;;9.33;6.70;;;13.00;89.90;;;;;;5043964;28;20448;-68
2022/03/03 11:16:33;;;;;;;7.20;6.50;;;13.10;89.10;;;;;;5045853;28;20497;-67
2022/03/03 11:19:02;;;;;;;6.90;6.20;;;13.30;89.40;;;;;;5048890;28;21159;-70
2022/03/03 11:21:28;;;;;;;9.43;8.13;;;13.50;88.70;;;;;;5043283;28;20554;-69
2022/03/03 11:23:57;;;;;;;8.80;7.10;;;13.40;87.90;;;;;;5047879;28;20452;-69
2022/03/03 11:26:27;;;;;;;9.77;5.93;;;13.20;87.30;;;;;;5046948;28;20677;-70
2022/03/03 11:29:02;;;;;;;7.40;6.40;;;13.10;87.50;;;;;;5044770;28;20467;-70
2022/03/03 11:31:31;;;;;;;9.43;6.70;;;13.20;86.00;;;;;;5046722;28;20556;-69
2022/03/03 11:34:30;;;;;;;7.93;7.13;;;13.50;87.00;;;;;;5046938;28;20478;-72
2022/03/03 11:37:03;;;;;;;8.60;6.93;;;13.80;86.40;;;;;;5045763;28;20448;-70
2022/03/03 11:39:45;;;;;;;7.43;6.07;;;14.40;86.70;;;;;;5047923;28;20498;-68
2022/03/03 11:42:40;;;;;;;7.57;6.80;;;15.00;84.50;;;;;;5042130;28;20478;-69
2022/03/03 11:45:32;;;;;;;6.70;5.73;;;15.40;84.30;;;;;;5047755;28;20498;-68
2022/03/03 11:48:14;;;;;;;6.70;6.00;;;16.00;80.00;;;;;;5041405;28;20440;-70
2022/03/03 11:50:44;;;;;;;7.53;6.00;;;16.50;78.40;;;;;;5032010;28;20539;-69
2022/03/03 11:53:20;;;;;;;7.13;5.80;;;17.10;74.90;;;;;;5046559;28;20448;-70
2022/03/03 11:55:49;;;;;;;6.03;5.40;;;17.60;71.50;;;;;;5042505;28;20444;-70
2022/03/03 11:58:18;;;;;;;7.57;5.73;;;18.50;69.40;;;;;;5042377;28;20917;-69
2022/03/03 12:00:46;;;;;;;6.23;5.63;;;19.10;66.00;;;;;;5031011;28;20555;-70
2022/03/03 12:03:15;;;;;;;7.33;6.57;;;19.60;65.40;;;;;;5046338;28;20533;-70
2022/03/03 12:05:47;;;;;;;6.70;5.77;;;19.80;62.30;;;;;;5047499;28;20452;-70
2022/03/03 12:08:32;;;;;;;5.27;4.77;;;20.50;60.00;;;;;;5047481;28;20448;-68
2022/03/03 12:11:11;;;;;;;6.47;5.20;;;20.90;58.70;;;;;;5040044;28;20479;-70
2022/03/03 12:13:46;;;;;;;7.30;5.53;;;21.50;57.20;;;;;;5042281;28;20540;-69
2022/03/03 12:16:19;;;;;;;6.07;5.30;;;22.20;56.20;;;;;;5046213;28;20461;-71
2022/03/03 12:18:47;;;;;;;6.10;5.50;;;23.10;55.70;;;;;;5036783;28;20553;-69
2022/03/03 12:21:26;;;;;;;6.23;5.20;;;23.60;52.20;;;;;;5044529;28;21012;-70
2022/03/03 12:24:33;;;;;;;7.30;5.27;;;23.50;50.60;;;;;;5046056;28;20440;-69
2022/03/03 12:27:09;;;;;;;6.37;5.10;;;22.90;49.80;;;;;;5039399;28;20443;-70
2022/03/03 12:29:37;;;;;;;6.70;5.97;;;23.50;49.10;;;;;;5045173;28;20507;-69
2022/03/03 12:32:42;;;;;;;6.87;5.23;;;24.00;48.40;;;;;;5046327;28;20497;-68
2022/03/03 12:35:12;;;;;;;6.63;5.93;;;23.90;46.40;;;;;;5031554;28;20501;-70
2022/03/03 12:37:45;;;;;;;10.33;5.90;;;23.40;46.40;;;;;;5046110;28;20950;-71
2022/03/03 12:40:14;;;;;;;6.07;5.47;;;23.60;47.50;;;;;;5026832;28;20551;-69
2022/03/03 12:42:45;;;;;;;5.47;4.97;;;24.20;47.10;;;;;;5041085;28;20454;-69
2022/03/03 12:45:14;;;;;;;6.20;4.80;;;24.60;46.50;;;;;;5040617;28;20461;-69
2022/03/03 12:47:45;;;;;;;5.50;4.97;;;24.70;45.30;;;;;;5039962;28;20827;-62
2022/03/03 12:50:14;;;;;;;4.43;4.03;;;24.80;45.70;;;;;;5043224;28;20463;-63
2022/03/03 12:52:55;;;;;;;5.57;5.00;;;24.70;47.00;;;;;;5042278;28;20480;-63
2022/03/03 12:55:27;;;;;;;5.00;4.60;;;25.20;44.70;;;;;;5050628;28;20449;-62
2022/03/03 12:57:56;;;;;;;4.67;4.27;;;25.10;44.00;;;;;;5049676;28;20422;-62
2022/03/03 13:00:23;;;;;;;4.43;4.03;;;25.20;43.50;;;;;;5041956;28;20512;-71
2022/03/03 13:02:51;;;;;;;5.57;4.50;;;24.20;44.40;;;;;;5041129;28;20449;-71
2022/03/03 13:05:33;;;;;;;5.20;4.50;;;23.80;43.70;;;;;;5043936;28;20455;-71